Norwegian Star — C6FR3 — position and weather

sailwx.info

Track history (hours):
 
Tides and Currents Weather Stations Pressure Air Temp Water Temp Dewpoint Dewpoint Depression Visibility Wind Speed Wind Dir Waves Ship Positions

Norwegian Star

Operator: Norwegian Cruise Line

Last reported at 2016-Jul-30 05:00 UTC. Time now 2016-Jul-30 07:25 UTC.
Position N 56°54' E 017°18'.

Type: Passenger vessel. MMSI: 311082000.

Wind from 240 at 15 knots

Waves 0.5 meters (2 feet), 2 second period

Barometer 1009.0 mb
Air temperature 18.9 ° C
Visibility: greater than 2.2 NM
Dewpoint 18.8 ° C
Water temperature 14.0 ° C

Date/timePositionNaut miles runAvg speedWind from/ knotsBaromVisibWave heightAir tempDewpointWater temp
2016-Jul-30 05:00N 56°54' E 017°18'2625.9 240 / 151009.0 2.2 0.518.918.814.0
2016-Jul-30 04:00N 57°18' E 017°36'2517.3 45.0 21.0
2016-Jul-30 02:34N 57°42' E 017°48'3021.2
2016-Jul-30 01:08N 58°08' E 018°18'1287.7
2016-Jul-30 01:00N 58°18' E 018°30'8542.7 270 / 101010.010.8 0.519.0 18.0
2016-Jul-29 23:00N 59°42' E 019°00'27 3.5 280 / 91019.0 1.519.012.0
2016-Jul-29 15:20N 59°22' E 018°25'910.1
2016-Jul-29 14:29N 59°19' E 018°09'1 1.5
2016-Jul-29 13:32N 59°19' E 018°06'0 0.0
2016-Jul-29 12:32N 59°19' E 018°06'1 1.8
2016-Jul-29 12:00N 59°18' E 018°06'1 0.7 320 / 41012.010.8 0.522.0 10.8
2016-Jul-29 10:32N 59°19' E 018°06'1 0.1
2016-Jul-29 05:34N 59°19' E 018°07'18 7.1
2016-Jul-29 03:00N 59°30' E 018°36'1515.1 210 / 91011.010.8 0.516.516.319.0
2016-Jul-29 02:00N 59°42' E 018°54'1212.1 230 / 71011.010.8 17.317.119.0
2016-Jul-29 01:00N 59°42' E 019°18'1313.5 190 / 191011.010.8 0.518.418.219.0
2016-Jul-29 00:00N 59°48' E 019°42'1919.3 210 / 181011.010.8 0.518.818.719.0
2016-Jul-28 23:00N 59°36' E 020°12'3915.9 230 / 161013.010.8 0.518.6 16.4
2016-Jul-28 20:32N 59°27' E 021°27'3716.1
2016-Jul-28 18:12N 59°33' E 022°40'1116.3
2016-Jul-28 17:33N 59°35' E 023°01'1717.3
2016-Jul-28 16:33N 59°40' E 023°33'1817.7
2016-Jul-28 15:33N 59°45' E 024°07'1817.3
2016-Jul-28 14:31N 59°53' E 024°38'1414.1
2016-Jul-28 13:33N 60°05' E 024°53'4 3.9
2016-Jul-28 12:27N 60°09' E 024°55'0 0.1
2016-Jul-28 11:30N 60°09' E 024°55'0 0.0
2016-Jul-28 10:33N 60°09' E 024°55'3 5.5
2016-Jul-28 10:00N 60°12' E 024°54'3 7.1 140 / 121017.010.8 20.2 17.0
2016-Jul-28 09:33N 60°09' E 024°55'0 0.0
2016-Jul-28 08:33N 60°09' E 024°55'0 0.0
2016-Jul-28 07:27N 60°09' E 024°55'0 0.0
2016-Jul-28 05:30N 60°09' E 024°55'0 0.0
2016-Jul-28 04:33N 60°09' E 024°55'0 0.0
2016-Jul-28 03:33N 60°09' E 024°55'8 7.6
2016-Jul-28 02:34N 60°01' E 024°55'1716.7
2016-Jul-28 01:34N 59°55' E 025°26'1119.2
2016-Jul-28 01:00N 59°54' E 025°48'919.7 300 / 131015.027.0 1.019.115.020.0
2016-Jul-28 00:34N 59°58' E 026°03'1918.8
2016-Jul-27 23:34N 60°01' E 026°40'16222860.1
2016-Jul-27 23:00N 60°00' W 027°24'16393781.7 270 / 151014.6 1.520.012.0
2016-Jul-27 22:34N 60°03' E 027°16'713.1
2016-Jul-27 22:00N 60°06' E 027°30'1226.6 270 / 141018.010.8 1.020.7 19.2
2016-Jul-27 21:34N 60°12' E 027°50'1717.5
2016-Jul-27 20:34N 60°06' E 028°23'1615.8
2016-Jul-27 19:33N 60°03' E 028°54'1914.3
2016-Jul-27 18:15N 60°01' E 029°31'811.7
2016-Jul-27 17:33N 59°58' E 029°47'1010.2
2016-Jul-27 16:33N 59°57' E 030°07'2 2.0
2016-Jul-27 15:32N 59°57' E 030°11'0 0.0
2016-Jul-27 14:32N 59°57' E 030°11'3 5.1
2016-Jul-27 14:00N 59°54' E 030°12'3 6.1 180 / 101016.010.8 10.010.015.0
2016-Jul-27 13:32N 59°57' E 030°11'3 5.1
2016-Jul-27 13:00N 59°54' E 030°12'3 6.2 320 / 131018.010.8 0.523.1 20.3
2016-Jul-27 12:32N 59°57' E 030°11'0 0.0
2016-Jul-27 11:32N 59°57' E 030°11'0 0.0
2016-Jul-27 10:32N 59°57' E 030°11'0 0.0
2016-Jul-27 09:32N 59°57' E 030°11'0 0.0
2016-Jul-27 08:32N 59°57' E 030°11'0 0.0
2016-Jul-27 07:32N 59°57' E 030°11'0 0.0
2016-Jul-27 06:32N 59°57' E 030°11'0 0.0
2016-Jul-27 05:32N 59°57' E 030°11'0 0.0
2016-Jul-27 04:32N 59°57' E 030°11'3 6.1
2016-Jul-27 04:00N 60°00' E 030°12'3 7.4 200 / 91018.0 2.2 21.020.017.0
2016-Jul-27 03:32N 59°57' E 030°11'3 6.1
2016-Jul-27 03:00N 60°00' E 030°12'3 7.4 190 / 91019.0 5.4 0.521.018.016.0
2016-Jul-27 02:32N 59°57' E 030°11'0 0.0
2016-Jul-27 01:32N 59°57' E 030°11'0 0.0
2016-Jul-27 00:32N 59°57' E 030°11'0 0.0
2016-Jul-26 23:32N 59°57' E 030°11'0 0.0
2016-Jul-26 22:32N 59°57' E 030°11'0 0.0
2016-Jul-26 21:32N 59°57' E 030°11'0 0.0
2016-Jul-26 20:32N 59°57' E 030°11'0 0.0
2016-Jul-26 19:32N 59°57' E 030°11'0 0.0
2016-Jul-26 18:32N 59°57' E 030°11'0 0.0
2016-Jul-26 17:32N 59°57' E 030°11'0 0.0
2016-Jul-26 16:32N 59°57' E 030°11'0 0.0
2016-Jul-26 15:32N 59°57' E 030°11'0 0.0
2016-Jul-26 14:32N 59°57' E 030°11'0 0.0
2016-Jul-26 13:32N 59°57' E 030°11'0 0.0
2016-Jul-26 12:32N 59°57' E 030°11'0 0.0
2016-Jul-26 11:32N 59°57' E 030°11'0 0.0
2016-Jul-26 10:32N 59°57' E 030°11'0 0.0
2016-Jul-26 09:32N 59°57' E 030°11'0 0.0
2016-Jul-26 08:32N 59°57' E 030°11'0 0.0
2016-Jul-26 07:32N 59°57' E 030°11'0 0.0
2016-Jul-26 06:32N 59°57' E 030°11'0 0.0
2016-Jul-26 05:32N 59°57' E 030°11'0 0.0
2016-Jul-26 04:33N 59°57' E 030°11'6 5.8
2016-Jul-26 03:33N 59°55' E 029°60'1110.7
2016-Jul-26 02:33N 59°60' E 029°40'1312.7
2016-Jul-26 01:33N 60°02' E 029°15'1414.5
2016-Jul-26 00:33N 60°02' E 028°46'814.9
2016-Jul-26 00:00N 60°00' E 028°30'817.5 130 / 51017.0 1.520.013.0
2016-Jul-25 23:34N 60°05' E 028°19'1414.1
2016-Jul-25 22:33N 60°10' E 027°53'2914.2
2016-Jul-25 20:31N 59°58' E 027°00'1414.6
2016-Jul-25 19:33N 59°58' E 026°32'1414.3
2016-Jul-25 18:33N 59°54' E 026°05'1414.2
2016-Jul-25 17:33N 59°50' E 025°37'1714.3
2016-Jul-25 16:22N 59°45' E 025°05'617.2
2016-Jul-25 16:00N 59°42' E 024°54'511.6 310 / 131020.0 5.4 1.020.017.016.0
2016-Jul-25 15:32N 59°40' E 024°45'1212.3
2016-Jul-25 14:33N 59°27' E 024°46'0 0.4
2016-Jul-25 13:33N 59°27' E 024°46'0 0.1
2016-Jul-25 12:27N 59°27' E 024°46'0 0.0
2016-Jul-25 05:33N 59°27' E 024°46'6 6.0
2016-Jul-25 04:32N 59°30' E 024°36'916.3
2016-Jul-25 04:00N 59°30' E 024°18'813.3 270 / 41019.010.8 0.518.218.018.0
2016-Jul-25 03:25N 59°28' E 024°03'511.6
2016-Jul-25 03:00N 59°30' E 023°54'1222.5 250 / 51019.010.8 0.518.118.019.0
2016-Jul-25 02:26N 59°25' E 023°31'1516.7
2016-Jul-25 01:33N 59°22' E 023°03'1716.7
2016-Jul-25 00:33N 59°18' E 022°31'1220.7
2016-Jul-25 00:00N 59°12' E 022°12'812.8 310 / 31019.4 1.518.011.0
2016-Jul-24 23:24N 59°10' E 021°57'2215.4
2016-Jul-24 22:00N 58°54' E 021°30'10517.5 140 / 41024.010.8 0.518.3 18.2
2016-Jul-24 16:00N 57°24' E 019°48'1111.4 210 / 21020.0 0.519.619.019.0
2016-Jul-24 15:00N 57°18' E 019°30'2726.6 190 / 21023.0 5.4 0.520.017.016.0
2016-Jul-24 14:00N 57°00' E 018°54'14874.0 310 / 11024.010.8 0.520.614.716.9
2016-Jul-24 12:00N 56°48' E 014°24'10552.6 090 / 61025.0 1.520.012.0
2016-Jul-24 10:00N 56°24' E 017°30'7917.7 100 / 21025.010.8 0.521.2 17.4
2016-Jul-24 05:33N 55°39' E 015°35'1817.8
2016-Jul-24 04:33N 55°32' E 015°06'1817.6
2016-Jul-24 03:33N 55°23' E 014°39'1717.3
2016-Jul-24 02:34N 55°10' E 014°19'1716.6
2016-Jul-24 01:33N 54°59' E 013°56'1717.1
2016-Jul-24 00:33N 54°54' E 013°28'1717.0
2016-Jul-23 23:33N 54°49' E 013°00'1716.6
2016-Jul-23 22:34N 54°42' E 012°34'1615.6
2016-Jul-23 21:34N 54°31' E 012°15'1717.5
2016-Jul-23 20:34N 54°15' E 012°04'5 4.4
2016-Jul-23 19:31N 54°10' E 012°06'0 0.0
2016-Jul-23 18:31N 54°10' E 012°06'0 0.0
2016-Jul-23 17:28N 54°10' E 012°06'0 0.0
2016-Jul-23 16:31N 54°10' E 012°06'2 3.2
2016-Jul-23 16:00N 54°12' E 012°06'2 3.6 050 / 131019.010.8 10.0 16.0
2016-Jul-23 15:31N 54°10' E 012°06'0 0.0
2016-Jul-23 14:31N 54°10' E 012°06'0 0.0
2016-Jul-23 13:31N 54°10' E 012°06'0 0.0
2016-Jul-23 12:31N 54°10' E 012°06'0 0.0
2016-Jul-23 11:31N 54°10' E 012°06'0 0.0
2016-Jul-23 10:25N 54°10' E 012°06'0 0.0
2016-Jul-23 09:31N 54°10' E 012°06'0 0.0
2016-Jul-23 08:31N 54°10' E 012°06'0 0.0
2016-Jul-23 07:31N 54°10' E 012°06'0 0.0
2016-Jul-23 06:31N 54°10' E 012°06'2 1.3
2016-Jul-23 04:34N 54°13' E 012°05'10 9.5
2016-Jul-23 03:33N 54°19' E 011°53'1514.9
2016-Jul-23 02:33N 54°28' E 011°32'1515.5
2016-Jul-23 01:33N 54°35' E 011°09'1414.1
2016-Jul-23 00:33N 54°46' E 010°51'1527.1
2016-Jul-23 00:00N 55°00' E 011°00'1 3.3 050 / 81017.010.8 0.520.5 16.0
2016-Jul-22 23:33N 54°59' E 010°60'1514.8
2016-Jul-22 22:33N 55°13' E 011°06'5415.6
2016-Jul-22 19:06N 56°07' E 011°10'1219.2
2016-Jul-22 18:29N 56°07' E 011°32'1819.2
2016-Jul-22 17:33N 56°11' E 012°03'915.1
2016-Jul-22 17:00N 56°12' E 012°18'1126.3 330 / 111018.010.8 0.521.818.019.0
2016-Jul-22 16:33N 56°06' E 012°35'1818.2
2016-Jul-22 15:34N 55°48' E 012°43'6 6.2
2016-Jul-22 14:33N 55°43' E 012°37'0 0.0
2016-Jul-22 13:33N 55°43' E 012°37'0 0.0
2016-Jul-22 12:33N 55°43' E 012°37'0 0.0
2016-Jul-22 11:33N 55°43' E 012°37'0 0.0
2016-Jul-22 10:33N 55°43' E 012°37'0 0.0
2016-Jul-22 09:33N 55°43' E 012°37'0 0.0
2016-Jul-22 08:33N 55°43' E 012°37'0 0.0
2016-Jul-22 07:33N 55°43' E 012°37'0 0.0
2016-Jul-22 05:33N 55°43' E 012°37'0 0.0
2016-Jul-22 04:33N 55°43' E 012°37'6 6.1
2016-Jul-22 03:33N 55°48' E 012°42'1832.0
2016-Jul-22 03:00N 56°06' E 012°36'2 4.2 120 / 101020.010.8 17.812.118.0
2016-Jul-22 02:33N 56°04' E 012°37'1818.4
2016-Jul-22 01:33N 56°11' E 012°06'1120.1
2016-Jul-22 01:00N 56°06' E 011°48'919.7 080 / 61016.6 1.518.011.0
2016-Jul-22 00:33N 56°07' E 011°33'1628.8
2016-Jul-22 00:00N 56°00' E 011°06'1 2.6 120 / 71020.010.8 0.518.8 17.5
2016-Jul-21 23:33N 56°00' E 011°04'2020.2
2016-Jul-21 22:33N 55°42' E 010°48'1818.1
2016-Jul-21 21:33N 55°25' E 011°00'1514.9
2016-Jul-21 20:33N 55°10' E 011°04'1616.2
2016-Jul-21 19:33N 54°55' E 010°55'1515.4
2016-Jul-21 18:33N 54°40' E 011°01'1818.4
2016-Jul-21 17:34N 54°31' E 011°29'1817.7
2016-Jul-21 16:33N 54°26' E 011°58'5 9.3
2016-Jul-21 16:00N 54°24' E 012°06'1432.6 070 / 201016.010.8 0.522.117.019.0
2016-Jul-21 15:33N 54°36' E 012°18'2137.0
2016-Jul-21 15:00N 54°48' E 012°48'3 6.0 100 / 241020.0 5.4 1.021.018.016.0
2016-Jul-21 14:33N 54°47' E 012°44'2019.9
2016-Jul-21 13:33N 54°55' E 013°16'5 8.7
2016-Jul-21 13:00N 54°54' E 013°24'1738.4 130 / 231017.0 1.518.011.0
2016-Jul-21 12:34N 55°03' E 013°49'3 5.9
2016-Jul-21 12:00N 55°06' E 013°48'1943.1 140 / 171017.0 1.519.010.0
2016-Jul-21 11:33N 55°14' E 014°18'1221.4
2016-Jul-21 11:00N 55°24' E 014°30'920.8 100 / 161017.0 1.519.010.0
2016-Jul-21 10:34N 55°29' E 014°43'2121.1
2016-Jul-21 09:34N 55°39' E 015°16'2121.1
2016-Jul-21 08:33N 55°49' E 015°49'2121.0
2016-Jul-21 07:33N 56°00' E 016°21'1934.1
2016-Jul-21 07:00N 56°12' E 016°48'1 3.4 060 / 41017.027.0 0.518.118.018.0
2016-Jul-21 06:34N 56°13' E 016°49'1221.7
2016-Jul-21 06:00N 56°24' E 017°00'920.3 080 / 91017.027.0 0.518.518.017.0
2016-Jul-21 05:33N 56°32' E 017°05'1018.3
2016-Jul-21 05:00N 56°42' E 017°12'1125.1 070 / 81019.010.8 0.518.5 6.917.0
2016-Jul-21 04:33N 56°52' E 017°19'1526.6
2016-Jul-21 04:00N 57°06' E 017°30'715.8 050 / 91020.0 5.4 1.019.016.016.0
2016-Jul-21 03:33N 57°13' E 017°30'6621.5
2016-Jul-21 00:30N 58°12' E 018°22'13772675.8
2016-Jul-21 00:00N 50°18' W 018°30'13903158.2 020 / 81018.0 1.518.011.0
2016-Jul-20 23:33N 58°29' E 018°44'814.9
2016-Jul-20 23:00N 58°36' E 018°54'6613.2 350 / 101022.010.8 0.518.3 11.2
2016-Jul-20 18:00N 59°42' E 018°54'1110.9 030 / 151020.010.8 19.014.018.0
2016-Jul-20 17:00N 59°36' E 018°36'9 8.5 060 / 91018.0 5.4 0.520.015.017.0
2016-Jul-20 16:00N 59°30' E 018°24'810.1 090 / 121018.027.0 0.521.2-13.016.0
2016-Jul-20 15:10N 59°22' E 018°24'710.6
2016-Jul-20 14:33N 59°20' E 018°12'3 0.7
2016-Jul-20 10:28N 59°19' E 018°06'0 0.0
2016-Jul-20 08:16N 59°19' E 018°06'0 0.0
2016-Jul-20 07:22N 59°19' E 018°06'1 0.8
2016-Jul-20 05:33N 59°19' E 018°09'  
Track history (hours):
 
Tides and Currents Weather Stations Pressure Air Temp Water Temp Dewpoint Dewpoint Depression Visibility Wind Speed Wind Dir Waves Ship Positions

Norwegian Star

Operator: Norwegian Cruise Line

Last reported at 2016-Jul-30 05:00 UTC. Time now 2016-Jul-30 07:25 UTC.
Position N 56°54' E 017°18'.

Type: Passenger vessel. MMSI: 311082000.

Wind from 240 at 15 knots

Waves 0.5 meters (2 feet), 2 second period

Barometer 1009.0 mb
Air temperature 18.9 ° C
Visibility: greater than 2.2 NM
Dewpoint 18.8 ° C
Water temperature 14.0 ° C

Date/timePositionNaut miles runAvg speedWind from/ knotsBaromVisibWave heightAir tempDewpointWater temp
2016-Jul-30 05:00N 56°54' E 017°18'2625.9 240 / 151009.0 2.2 0.518.918.814.0
2016-Jul-30 04:00N 57°18' E 017°36'2517.3 45.0 21.0
2016-Jul-30 02:34N 57°42' E 017°48'3021.2
2016-Jul-30 01:08N 58°08' E 018°18'1287.7
2016-Jul-30 01:00N 58°18' E 018°30'8542.7 270 / 101010.010.8 0.519.0 18.0
2016-Jul-29 23:00N 59°42' E 019°00'27 3.5 280 / 91019.0 1.519.012.0
2016-Jul-29 15:20N 59°22' E 018°25'910.1
2016-Jul-29 14:29N 59°19' E 018°09'1 1.5
2016-Jul-29 13:32N 59°19' E 018°06'0 0.0
2016-Jul-29 12:32N 59°19' E 018°06'1 1.8
2016-Jul-29 12:00N 59°18' E 018°06'1 0.7 320 / 41012.010.8 0.522.0 10.8
2016-Jul-29 10:32N 59°19' E 018°06'1 0.1
2016-Jul-29 05:34N 59°19' E 018°07'18 7.1
2016-Jul-29 03:00N 59°30' E 018°36'1515.1 210 / 91011.010.8 0.516.516.319.0
2016-Jul-29 02:00N 59°42' E 018°54'1212.1 230 / 71011.010.8 17.317.119.0
2016-Jul-29 01:00N 59°42' E 019°18'1313.5 190 / 191011.010.8 0.518.418.219.0
2016-Jul-29 00:00N 59°48' E 019°42'1919.3 210 / 181011.010.8 0.518.818.719.0
2016-Jul-28 23:00N 59°36' E 020°12'3915.9 230 / 161013.010.8 0.518.6 16.4
2016-Jul-28 20:32N 59°27' E 021°27'3716.1
2016-Jul-28 18:12N 59°33' E 022°40'1116.3
2016-Jul-28 17:33N 59°35' E 023°01'1717.3
2016-Jul-28 16:33N 59°40' E 023°33'1817.7
2016-Jul-28 15:33N 59°45' E 024°07'1817.3
2016-Jul-28 14:31N 59°53' E 024°38'1414.1
2016-Jul-28 13:33N 60°05' E 024°53'4 3.9
2016-Jul-28 12:27N 60°09' E 024°55'0 0.1
2016-Jul-28 11:30N 60°09' E 024°55'0 0.0
2016-Jul-28 10:33N 60°09' E 024°55'3 5.5
2016-Jul-28 10:00N 60°12' E 024°54'3 7.1 140 / 121017.010.8 20.2 17.0
2016-Jul-28 09:33N 60°09' E 024°55'0 0.0
2016-Jul-28 08:33N 60°09' E 024°55'0 0.0
2016-Jul-28 07:27N 60°09' E 024°55'0 0.0
2016-Jul-28 05:30N 60°09' E 024°55'0 0.0
2016-Jul-28 04:33N 60°09' E 024°55'0 0.0
2016-Jul-28 03:33N 60°09' E 024°55'8 7.6
2016-Jul-28 02:34N 60°01' E 024°55'1716.7
2016-Jul-28 01:34N 59°55' E 025°26'1119.2
2016-Jul-28 01:00N 59°54' E 025°48'919.7 300 / 131015.027.0 1.019.115.020.0
2016-Jul-28 00:34N 59°58' E 026°03'1918.8
2016-Jul-27 23:34N 60°01' E 026°40'16222860.1
2016-Jul-27 23:00N 60°00' W 027°24'16393781.7 270 / 151014.6 1.520.012.0
2016-Jul-27 22:34N 60°03' E 027°16'713.1
2016-Jul-27 22:00N 60°06' E 027°30'1226.6 270 / 141018.010.8 1.020.7 19.2
2016-Jul-27 21:34N 60°12' E 027°50'1717.5
2016-Jul-27 20:34N 60°06' E 028°23'1615.8
2016-Jul-27 19:33N 60°03' E 028°54'1914.3
2016-Jul-27 18:15N 60°01' E 029°31'811.7
2016-Jul-27 17:33N 59°58' E 029°47'1010.2
2016-Jul-27 16:33N 59°57' E 030°07'2 2.0
2016-Jul-27 15:32N 59°57' E 030°11'0 0.0
2016-Jul-27 14:32N 59°57' E 030°11'3 5.1
2016-Jul-27 14:00N 59°54' E 030°12'3 6.1 180 / 101016.010.8 10.010.015.0
2016-Jul-27 13:32N 59°57' E 030°11'3 5.1
2016-Jul-27 13:00N 59°54' E 030°12'3 6.2 320 / 131018.010.8 0.523.1 20.3
2016-Jul-27 12:32N 59°57' E 030°11'0 0.0
2016-Jul-27 11:32N 59°57' E 030°11'0 0.0
2016-Jul-27 10:32N 59°57' E 030°11'0 0.0
2016-Jul-27 09:32N 59°57' E 030°11'0 0.0
2016-Jul-27 08:32N 59°57' E 030°11'0 0.0
2016-Jul-27 07:32N 59°57' E 030°11'0 0.0
2016-Jul-27 06:32N 59°57' E 030°11'0 0.0
2016-Jul-27 05:32N 59°57' E 030°11'0 0.0
2016-Jul-27 04:32N 59°57' E 030°11'3 6.1
2016-Jul-27 04:00N 60°00' E 030°12'3 7.4 200 / 91018.0 2.2 21.020.017.0
2016-Jul-27 03:32N 59°57' E 030°11'3 6.1
2016-Jul-27 03:00N 60°00' E 030°12'3 7.4 190 / 91019.0 5.4 0.521.018.016.0
2016-Jul-27 02:32N 59°57' E 030°11'0 0.0
2016-Jul-27 01:32N 59°57' E 030°11'0 0.0
2016-Jul-27 00:32N 59°57' E 030°11'0 0.0
2016-Jul-26 23:32N 59°57' E 030°11'0 0.0
2016-Jul-26 22:32N 59°57' E 030°11'0 0.0
2016-Jul-26 21:32N 59°57' E 030°11'0 0.0
2016-Jul-26 20:32N 59°57' E 030°11'0 0.0
2016-Jul-26 19:32N 59°57' E 030°11'0 0.0
2016-Jul-26 18:32N 59°57' E 030°11'0 0.0
2016-Jul-26 17:32N 59°57' E 030°11'0 0.0
2016-Jul-26 16:32N 59°57' E 030°11'0 0.0
2016-Jul-26 15:32N 59°57' E 030°11'0 0.0
2016-Jul-26 14:32N 59°57' E 030°11'0 0.0
2016-Jul-26 13:32N 59°57' E 030°11'0 0.0
2016-Jul-26 12:32N 59°57' E 030°11'0 0.0
2016-Jul-26 11:32N 59°57' E 030°11'0 0.0
2016-Jul-26 10:32N 59°57' E 030°11'0 0.0
2016-Jul-26 09:32N 59°57' E 030°11'0 0.0
2016-Jul-26 08:32N 59°57' E 030°11'0 0.0
2016-Jul-26 07:32N 59°57' E 030°11'0 0.0
2016-Jul-26 06:32N 59°57' E 030°11'0 0.0
2016-Jul-26 05:32N 59°57' E 030°11'0 0.0
2016-Jul-26 04:33N 59°57' E 030°11'6 5.8
2016-Jul-26 03:33N 59°55' E 029°60'1110.7
2016-Jul-26 02:33N 59°60' E 029°40'1312.7
2016-Jul-26 01:33N 60°02' E 029°15'1414.5
2016-Jul-26 00:33N 60°02' E 028°46'814.9
2016-Jul-26 00:00N 60°00' E 028°30'817.5 130 / 51017.0 1.520.013.0
2016-Jul-25 23:34N 60°05' E 028°19'1414.1
2016-Jul-25 22:33N 60°10' E 027°53'2914.2
2016-Jul-25 20:31N 59°58' E 027°00'1414.6
2016-Jul-25 19:33N 59°58' E 026°32'1414.3
2016-Jul-25 18:33N 59°54' E 026°05'1414.2
2016-Jul-25 17:33N 59°50' E 025°37'1714.3
2016-Jul-25 16:22N 59°45' E 025°05'617.2
2016-Jul-25 16:00N 59°42' E 024°54'511.6 310 / 131020.0 5.4 1.020.017.016.0
2016-Jul-25 15:32N 59°40' E 024°45'1212.3
2016-Jul-25 14:33N 59°27' E 024°46'0 0.4
2016-Jul-25 13:33N 59°27' E 024°46'0 0.1
2016-Jul-25 12:27N 59°27' E 024°46'0 0.0
2016-Jul-25 05:33N 59°27' E 024°46'6 6.0
2016-Jul-25 04:32N 59°30' E 024°36'916.3
2016-Jul-25 04:00N 59°30' E 024°18'813.3 270 / 41019.010.8 0.518.218.018.0
2016-Jul-25 03:25N 59°28' E 024°03'511.6
2016-Jul-25 03:00N 59°30' E 023°54'1222.5 250 / 51019.010.8 0.518.118.019.0
2016-Jul-25 02:26N 59°25' E 023°31'1516.7
2016-Jul-25 01:33N 59°22' E 023°03'1716.7
2016-Jul-25 00:33N 59°18' E 022°31'1220.7
2016-Jul-25 00:00N 59°12' E 022°12'812.8 310 / 31019.4 1.518.011.0
2016-Jul-24 23:24N 59°10' E 021°57'2215.4
2016-Jul-24 22:00N 58°54' E 021°30'10517.5 140 / 41024.010.8 0.518.3 18.2
2016-Jul-24 16:00N 57°24' E 019°48'1111.4 210 / 21020.0 0.519.619.019.0
2016-Jul-24 15:00N 57°18' E 019°30'2726.6 190 / 21023.0 5.4 0.520.017.016.0
2016-Jul-24 14:00N 57°00' E 018°54'14874.0 310 / 11024.010.8 0.520.614.716.9
2016-Jul-24 12:00N 56°48' E 014°24'10552.6 090 / 61025.0 1.520.012.0
2016-Jul-24 10:00N 56°24' E 017°30'7917.7 100 / 21025.010.8 0.521.2 17.4
2016-Jul-24 05:33N 55°39' E 015°35'1817.8
2016-Jul-24 04:33N 55°32' E 015°06'1817.6
2016-Jul-24 03:33N 55°23' E 014°39'1717.3
2016-Jul-24 02:34N 55°10' E 014°19'1716.6
2016-Jul-24 01:33N 54°59' E 013°56'1717.1
2016-Jul-24 00:33N 54°54' E 013°28'1717.0
2016-Jul-23 23:33N 54°49' E 013°00'1716.6
2016-Jul-23 22:34N 54°42' E 012°34'1615.6
2016-Jul-23 21:34N 54°31' E 012°15'1717.5
2016-Jul-23 20:34N 54°15' E 012°04'5 4.4
2016-Jul-23 19:31N 54°10' E 012°06'0 0.0
2016-Jul-23 18:31N 54°10' E 012°06'0 0.0
2016-Jul-23 17:28N 54°10' E 012°06'0 0.0
2016-Jul-23 16:31N 54°10' E 012°06'2 3.2
2016-Jul-23 16:00N 54°12' E 012°06'2 3.6 050 / 131019.010.8 10.0 16.0
2016-Jul-23 15:31N 54°10' E 012°06'0 0.0
2016-Jul-23 14:31N 54°10' E 012°06'0 0.0
2016-Jul-23 13:31N 54°10' E 012°06'0 0.0
2016-Jul-23 12:31N 54°10' E 012°06'0 0.0
2016-Jul-23 11:31N 54°10' E 012°06'0 0.0
2016-Jul-23 10:25N 54°10' E 012°06'0 0.0
2016-Jul-23 09:31N 54°10' E 012°06'0 0.0
2016-Jul-23 08:31N 54°10' E 012°06'0 0.0
2016-Jul-23 07:31N 54°10' E 012°06'0 0.0
2016-Jul-23 06:31N 54°10' E 012°06'2 1.3
2016-Jul-23 04:34N 54°13' E 012°05'10 9.5
2016-Jul-23 03:33N 54°19' E 011°53'1514.9
2016-Jul-23 02:33N 54°28' E 011°32'1515.5
2016-Jul-23 01:33N 54°35' E 011°09'1414.1
2016-Jul-23 00:33N 54°46' E 010°51'1527.1
2016-Jul-23 00:00N 55°00' E 011°00'1 3.3 050 / 81017.010.8 0.520.5 16.0
2016-Jul-22 23:33N 54°59' E 010°60'1514.8
2016-Jul-22 22:33N 55°13' E 011°06'5415.6
2016-Jul-22 19:06N 56°07' E 011°10'1219.2
2016-Jul-22 18:29N 56°07' E 011°32'1819.2
2016-Jul-22 17:33N 56°11' E 012°03'915.1
2016-Jul-22 17:00N 56°12' E 012°18'1126.3 330 / 111018.010.8 0.521.818.019.0
2016-Jul-22 16:33N 56°06' E 012°35'1818.2
2016-Jul-22 15:34N 55°48' E 012°43'6 6.2
2016-Jul-22 14:33N 55°43' E 012°37'0 0.0
2016-Jul-22 13:33N 55°43' E 012°37'0 0.0
2016-Jul-22 12:33N 55°43' E 012°37'0 0.0
2016-Jul-22 11:33N 55°43' E 012°37'0 0.0
2016-Jul-22 10:33N 55°43' E 012°37'0 0.0
2016-Jul-22 09:33N 55°43' E 012°37'0 0.0
2016-Jul-22 08:33N 55°43' E 012°37'0 0.0
2016-Jul-22 07:33N 55°43' E 012°37'0 0.0
2016-Jul-22 05:33N 55°43' E 012°37'0 0.0
2016-Jul-22 04:33N 55°43' E 012°37'6 6.1
2016-Jul-22 03:33N 55°48' E 012°42'1832.0
2016-Jul-22 03:00N 56°06' E 012°36'2 4.2 120 / 101020.010.8 17.812.118.0
2016-Jul-22 02:33N 56°04' E 012°37'1818.4
2016-Jul-22 01:33N 56°11' E 012°06'1120.1
2016-Jul-22 01:00N 56°06' E 011°48'919.7 080 / 61016.6 1.518.011.0
2016-Jul-22 00:33N 56°07' E 011°33'1628.8
2016-Jul-22 00:00N 56°00' E 011°06'1 2.6 120 / 71020.010.8 0.518.8 17.5
2016-Jul-21 23:33N 56°00' E 011°04'2020.2
2016-Jul-21 22:33N 55°42' E 010°48'1818.1
2016-Jul-21 21:33N 55°25' E 011°00'1514.9
2016-Jul-21 20:33N 55°10' E 011°04'1616.2
2016-Jul-21 19:33N 54°55' E 010°55'1515.4
2016-Jul-21 18:33N 54°40' E 011°01'1818.4
2016-Jul-21 17:34N 54°31' E 011°29'1817.7
2016-Jul-21 16:33N 54°26' E 011°58'5 9.3
2016-Jul-21 16:00N 54°24' E 012°06'1432.6 070 / 201016.010.8 0.522.117.019.0
2016-Jul-21 15:33N 54°36' E 012°18'2137.0
2016-Jul-21 15:00N 54°48' E 012°48'3 6.0 100 / 241020.0 5.4 1.021.018.016.0
2016-Jul-21 14:33N 54°47' E 012°44'2019.9
2016-Jul-21 13:33N 54°55' E 013°16'5 8.7
2016-Jul-21 13:00N 54°54' E 013°24'1738.4 130 / 231017.0 1.518.011.0
2016-Jul-21 12:34N 55°03' E 013°49'3 5.9
2016-Jul-21 12:00N 55°06' E 013°48'1943.1 140 / 171017.0 1.519.010.0
2016-Jul-21 11:33N 55°14' E 014°18'1221.4
2016-Jul-21 11:00N 55°24' E 014°30'920.8 100 / 161017.0 1.519.010.0
2016-Jul-21 10:34N 55°29' E 014°43'2121.1
2016-Jul-21 09:34N 55°39' E 015°16'2121.1
2016-Jul-21 08:33N 55°49' E 015°49'2121.0
2016-Jul-21 07:33N 56°00' E 016°21'1934.1
2016-Jul-21 07:00N 56°12' E 016°48'1 3.4 060 / 41017.027.0 0.518.118.018.0
2016-Jul-21 06:34N 56°13' E 016°49'1221.7
2016-Jul-21 06:00N 56°24' E 017°00'920.3 080 / 91017.027.0 0.518.518.017.0
2016-Jul-21 05:33N 56°32' E 017°05'1018.3
2016-Jul-21 05:00N 56°42' E 017°12'1125.1 070 / 81019.010.8 0.518.5 6.917.0
2016-Jul-21 04:33N 56°52' E 017°19'1526.6
2016-Jul-21 04:00N 57°06' E 017°30'715.8 050 / 91020.0 5.4 1.019.016.016.0
2016-Jul-21 03:33N 57°13' E 017°30'6621.5
2016-Jul-21 00:30N 58°12' E 018°22'13772675.8
2016-Jul-21 00:00N 50°18' W 018°30'13903158.2 020 / 81018.0 1.518.011.0
2016-Jul-20 23:33N 58°29' E 018°44'814.9
2016-Jul-20 23:00N 58°36' E 018°54'6613.2 350 / 101022.010.8 0.518.3 11.2
2016-Jul-20 18:00N 59°42' E 018°54'1110.9 030 / 151020.010.8 19.014.018.0
2016-Jul-20 17:00N 59°36' E 018°36'9 8.5 060 / 91018.0 5.4 0.520.015.017.0
2016-Jul-20 16:00N 59°30' E 018°24'810.1 090 / 121018.027.0 0.521.2-13.016.0
2016-Jul-20 15:10N 59°22' E 018°24'710.6
2016-Jul-20 14:33N 59°20' E 018°12'3 0.7
2016-Jul-20 10:28N 59°19' E 018°06'0 0.0
2016-Jul-20 08:16N 59°19' E 018°06'0 0.0
2016-Jul-20 07:22N 59°19' E 018°06'1 0.8
2016-Jul-20 05:33N 59°19' E 018°09'  

Dump ship's entire track history